Terminal Aerodrome Forecast
Issued by NWS

Home | Current Version | Previous Version | Text Only | Print | Product List | Glossary On
Versions: 1 2 3 4 5 6 7 8 9 10 11 12 13 14 15 16 17 18
000
FTUS41 KPBZ 232320
TAFMGW
TAF
KMGW 232320Z 2400/2424 22007KT P6SM BKN040
     FM240200 VRB05KT P6SM SCT040
     FM241600 19012G18KT P6SM SCT040=

USA.gov is the U.S. government's official web portal to all federal, state and local government web resources and services.